You are not logged in, Click here to log in
機場資訊:ZUCK Welcome to Taiwan Airways 台灣虛擬航空
ICAO: ZUCK Country: 中華人民共和國重庆市渝北区
Latitude: 29.7192 Longitude: 106.642
Total Arrivals: 15 Total Departures: 15
Latest Arrival: CZ3475 (ZHCC-ZUCK)CHU. CHUHAO Latest Departure: CZ6175 (ZUCK-ZPJH)CHU. CHUHAO
Scenery:
METAR : ZUCK 170400Z VRB01MPS 3800 BR FEW011 BKN046 15/13 Q1016 NOSIG

重慶江北國際機場CKG